sensor_id;sensor_type;location;lat;lon;timestamp;temperature;humidity
18575;DHT22;9417;16.484;102.872;2023-03-23T00:01:12;26.00;83.10
18575;DHT22;9417;16.484;102.872;2023-03-23T00:03:17;26.00;83.40
18575;DHT22;9417;16.484;102.872;2023-03-23T00:05:23;26.00;83.20
18575;DHT22;9417;16.484;102.872;2023-03-23T00:07:29;26.10;83.30
18575;DHT22;9417;16.484;102.872;2023-03-23T00:09:35;26.10;83.10
18575;DHT22;9417;16.484;102.872;2023-03-23T00:11:44;26.20;83.40
18575;DHT22;9417;16.484;102.872;2023-03-23T00:13:51;26.30;83.30
18575;DHT22;9417;16.484;102.872;2023-03-23T00:15:56;26.30;83.20
18575;DHT22;9417;16.484;102.872;2023-03-23T00:18:03;26.40;83.20
18575;DHT22;9417;16.484;102.872;2023-03-23T00:20:09;26.50;83.00
18575;DHT22;9417;16.484;102.872;2023-03-23T00:22:16;26.50;82.70
18575;DHT22;9417;16.484;102.872;2023-03-23T00:24:24;26.60;83.00
18575;DHT22;9417;16.484;102.872;2023-03-23T00:26:30;26.70;83.30
18575;DHT22;9417;16.484;102.872;2023-03-23T00:28:36;26.70;83.60
18575;DHT22;9417;16.484;102.872;2023-03-23T00:30:42;26.80;83.70
18575;DHT22;9417;16.484;102.872;2023-03-23T00:32:47;26.90;83.20
18575;DHT22;9417;16.484;102.872;2023-03-23T00:34:56;27.00;82.50
18575;DHT22;9417;16.484;102.872;2023-03-23T00:37:06;27.00;81.60
18575;DHT22;9417;16.484;102.872;2023-03-23T00:39:11;27.10;80.90
18575;DHT22;9417;16.484;102.872;2023-03-23T00:41:19;27.20;80.60
18575;DHT22;9417;16.484;102.872;2023-03-23T00:43:24;27.30;79.90
18575;DHT22;9417;16.484;102.872;2023-03-23T00:45:32;27.40;79.20
18575;DHT22;9417;16.484;102.872;2023-03-23T00:47:38;27.50;78.60
18575;DHT22;9417;16.484;102.872;2023-03-23T00:49:43;27.60;77.80
18575;DHT22;9417;16.484;102.872;2023-03-23T00:51:51;27.70;77.10
18575;DHT22;9417;16.484;102.872;2023-03-23T00:53:57;27.80;76.40
18575;DHT22;9417;16.484;102.872;2023-03-23T00:56:02;27.80;75.70
18575;DHT22;9417;16.484;102.872;2023-03-23T00:58:07;27.90;74.80
18575;DHT22;9417;16.484;102.872;2023-03-23T01:00:14;28.00;73.90
18575;DHT22;9417;16.484;102.872;2023-03-23T01:02:20;28.10;72.50
18575;DHT22;9417;16.484;102.872;2023-03-23T01:04:28;28.20;71.90
18575;DHT22;9417;16.484;102.872;2023-03-23T01:06:35;28.30;72.10
18575;DHT22;9417;16.484;102.872;2023-03-23T01:08:43;28.40;71.60
18575;DHT22;9417;16.484;102.872;2023-03-23T01:10:49;28.50;71.10
18575;DHT22;9417;16.484;102.872;2023-03-23T01:12:56;28.50;70.80
18575;DHT22;9417;16.484;102.872;2023-03-23T01:15:02;28.60;69.80
18575;DHT22;9417;16.484;102.872;2023-03-23T01:17:08;28.70;69.20
18575;DHT22;9417;16.484;102.872;2023-03-23T01:19:13;28.80;68.80
18575;DHT22;9417;16.484;102.872;2023-03-23T01:21:20;28.80;68.90
18575;DHT22;9417;16.484;102.872;2023-03-23T01:23:28;28.90;68.50
18575;DHT22;9417;16.484;102.872;2023-03-23T01:25:36;28.90;68.20
18575;DHT22;9417;16.484;102.872;2023-03-23T01:27:42;29.00;67.80
18575;DHT22;9417;16.484;102.872;2023-03-23T01:29:47;29.10;67.30
18575;DHT22;9417;16.484;102.872;2023-03-23T01:31:53;29.10;67.20
18575;DHT22;9417;16.484;102.872;2023-03-23T01:33:58;29.30;66.40
18575;DHT22;9417;16.484;102.872;2023-03-23T01:36:05;29.30;65.60
18575;DHT22;9417;16.484;102.872;2023-03-23T01:38:11;29.50;65.20
18575;DHT22;9417;16.484;102.872;2023-03-23T01:40:17;29.60;65.50
18575;DHT22;9417;16.484;102.872;2023-03-23T01:42:29;29.60;65.50
18575;DHT22;9417;16.484;102.872;2023-03-23T01:47:32;29.80;64.80
18575;DHT22;9417;16.484;102.872;2023-03-23T01:50:49;29.90;65.10
18575;DHT22;9417;16.484;102.872;2023-03-23T01:52:39;29.90;64.50
18575;DHT22;9417;16.484;102.872;2023-03-23T01:54:46;30.00;64.40
18575;DHT22;9417;16.484;102.872;2023-03-23T01:56:55;30.10;63.70
18575;DHT22;9417;16.484;102.872;2023-03-23T01:59:03;30.20;63.50
18575;DHT22;9417;16.484;102.872;2023-03-23T02:01:11;30.30;63.60
18575;DHT22;9417;16.484;102.872;2023-03-23T02:03:18;30.40;63.60
18575;DHT22;9417;16.484;102.872;2023-03-23T02:05:30;30.50;63.00
18575;DHT22;9417;16.484;102.872;2023-03-23T02:07:46;30.50;62.10
18575;DHT22;9417;16.484;102.872;2023-03-23T02:09:52;30.60;62.00
18575;DHT22;9417;16.484;102.872;2023-03-23T02:11:58;30.60;61.70
18575;DHT22;9417;16.484;102.872;2023-03-23T02:14:05;30.70;61.60
18575;DHT22;9417;16.484;102.872;2023-03-23T02:16:16;30.80;61.40
18575;DHT22;9417;16.484;102.872;2023-03-23T02:18:40;30.80;60.80
18575;DHT22;9417;16.484;102.872;2023-03-23T02:24:01;31.00;58.40
18575;DHT22;9417;16.484;102.872;2023-03-23T02:26:25;31.20;58.90
18575;DHT22;9417;16.484;102.872;2023-03-23T02:28:52;31.30;58.30
18575;DHT22;9417;16.484;102.872;2023-03-23T02:31:15;31.40;57.70
18575;DHT22;9417;16.484;102.872;2023-03-23T02:33:46;31.40;57.20
18575;DHT22;9417;16.484;102.872;2023-03-23T02:35:56;31.50;56.30
18575;DHT22;9417;16.484;102.872;2023-03-23T02:38:06;31.60;56.90
18575;DHT22;9417;16.484;102.872;2023-03-23T02:42:57;31.90;55.00
18575;DHT22;9417;16.484;102.872;2023-03-23T02:45:04;32.00;55.30
18575;DHT22;9417;16.484;102.872;2023-03-23T02:47:14;32.10;54.40
18575;DHT22;9417;16.484;102.872;2023-03-23T02:49:24;32.20;55.40
18575;DHT22;9417;16.484;102.872;2023-03-23T02:51:30;32.30;55.50
18575;DHT22;9417;16.484;102.872;2023-03-23T02:53:39;32.30;55.30
18575;DHT22;9417;16.484;102.872;2023-03-23T02:55:46;32.40;55.70
18575;DHT22;9417;16.484;102.872;2023-03-23T02:57:56;32.50;55.50
18575;DHT22;9417;16.484;102.872;2023-03-23T03:00:06;32.60;54.80
18575;DHT22;9417;16.484;102.872;2023-03-23T03:02:15;32.70;55.10
18575;DHT22;9417;16.484;102.872;2023-03-23T03:04:26;32.80;54.40
18575;DHT22;9417;16.484;102.872;2023-03-23T03:06:35;32.90;54.00
18575;DHT22;9417;16.484;102.872;2023-03-23T03:08:47;33.00;53.60
18575;DHT22;9417;16.484;102.872;2023-03-23T03:10:58;33.10;53.50
18575;DHT22;9417;16.484;102.872;2023-03-23T03:13:12;33.10;52.90
18575;DHT22;9417;16.484;102.872;2023-03-23T03:15:26;33.20;52.60
18575;DHT22;9417;16.484;102.872;2023-03-23T03:17:36;33.30;53.00
18575;DHT22;9417;16.484;102.872;2023-03-23T03:19:49;33.40;52.90
18575;DHT22;9417;16.484;102.872;2023-03-23T03:21:57;33.50;52.30
18575;DHT22;9417;16.484;102.872;2023-03-23T03:24:15;33.50;52.40
18575;DHT22;9417;16.484;102.872;2023-03-23T03:26:26;33.60;51.60
18575;DHT22;9417;16.484;102.872;2023-03-23T03:28:37;33.70;52.00
18575;DHT22;9417;16.484;102.872;2023-03-23T03:30:43;33.80;52.80
18575;DHT22;9417;16.484;102.872;2023-03-23T03:32:51;33.80;50.70
18575;DHT22;9417;16.484;102.872;2023-03-23T03:35:01;33.90;51.40
18575;DHT22;9417;16.484;102.872;2023-03-23T03:37:07;34.00;51.40
18575;DHT22;9417;16.484;102.872;2023-03-23T03:39:16;34.00;48.10
18575;DHT22;9417;16.484;102.872;2023-03-23T03:41:23;34.10;49.50
18575;DHT22;9417;16.484;102.872;2023-03-23T03:43:29;34.20;49.50
18575;DHT22;9417;16.484;102.872;2023-03-23T03:45:34;34.20;50.00
18575;DHT22;9417;16.484;102.872;2023-03-23T03:47:47;34.30;50.30
18575;DHT22;9417;16.484;102.872;2023-03-23T03:49:52;34.40;49.80
18575;DHT22;9417;16.484;102.872;2023-03-23T03:51:59;34.50;49.60
18575;DHT22;9417;16.484;102.872;2023-03-23T03:54:17;34.60;49.70
18575;DHT22;9417;16.484;102.872;2023-03-23T03:56:23;34.60;49.40
18575;DHT22;9417;16.484;102.872;2023-03-23T03:58:49;34.70;49.00
18575;DHT22;9417;16.484;102.872;2023-03-23T04:01:00;34.80;48.90
18575;DHT22;9417;16.484;102.872;2023-03-23T04:03:11;34.80;47.30
18575;DHT22;9417;16.484;102.872;2023-03-23T04:05:23;34.80;45.90
18575;DHT22;9417;16.484;102.872;2023-03-23T04:07:30;34.80;46.60
18575;DHT22;9417;16.484;102.872;2023-03-23T04:09:35;34.80;48.10
18575;DHT22;9417;16.484;102.872;2023-03-23T04:11:42;34.90;47.80
18575;DHT22;9417;16.484;102.872;2023-03-23T04:14:05;35.00;47.90
18575;DHT22;9417;16.484;102.872;2023-03-23T04:16:19;35.00;47.50
18575;DHT22;9417;16.484;102.872;2023-03-23T04:18:25;35.10;48.30
18575;DHT22;9417;16.484;102.872;2023-03-23T04:20:32;35.20;48.40
18575;DHT22;9417;16.484;102.872;2023-03-23T04:22:39;35.30;48.10
18575;DHT22;9417;16.484;102.872;2023-03-23T04:24:46;35.30;47.80
18575;DHT22;9417;16.484;102.872;2023-03-23T04:26:54;35.40;47.40
18575;DHT22;9417;16.484;102.872;2023-03-23T04:29:03;35.50;47.30
18575;DHT22;9417;16.484;102.872;2023-03-23T04:31:27;35.50;47.20
18575;DHT22;9417;16.484;102.872;2023-03-23T04:33:42;35.70;46.00
18575;DHT22;9417;16.484;102.872;2023-03-23T04:35:50;35.80;46.40
18575;DHT22;9417;16.484;102.872;2023-03-23T04:38:10;35.90;46.20
18575;DHT22;9417;16.484;102.872;2023-03-23T04:40:17;35.90;44.10
18575;DHT22;9417;16.484;102.872;2023-03-23T04:42:35;36.00;44.90
18575;DHT22;9417;16.484;102.872;2023-03-23T04:44:59;36.00;45.30
18575;DHT22;9417;16.484;102.872;2023-03-23T04:47:11;36.00;42.70
18575;DHT22;9417;16.484;102.872;2023-03-23T04:49:28;36.00;45.30
18575;DHT22;9417;16.484;102.872;2023-03-23T04:51:47;36.10;45.70
18575;DHT22;9417;16.484;102.872;2023-03-23T04:54:09;36.10;45.50
18575;DHT22;9417;16.484;102.872;2023-03-23T04:56:16;36.20;43.60
18575;DHT22;9417;16.484;102.872;2023-03-23T04:58:23;36.20;44.80
18575;DHT22;9417;16.484;102.872;2023-03-23T05:00:49;36.30;45.10
18575;DHT22;9417;16.484;102.872;2023-03-23T05:02:57;36.40;44.90
18575;DHT22;9417;16.484;102.872;2023-03-23T05:05:07;36.40;44.70
18575;DHT22;9417;16.484;102.872;2023-03-23T05:07:13;36.40;44.20
18575;DHT22;9417;16.484;102.872;2023-03-23T05:09:22;36.40;44.20
18575;DHT22;9417;16.484;102.872;2023-03-23T05:11:28;36.50;44.10
18575;DHT22;9417;16.484;102.872;2023-03-23T05:13:33;36.50;44.30
18575;DHT22;9417;16.484;102.872;2023-03-23T05:15:39;36.40;43.90
18575;DHT22;9417;16.484;102.872;2023-03-23T05:17:44;36.40;44.50
18575;DHT22;9417;16.484;102.872;2023-03-23T05:19:56;36.40;44.80
18575;DHT22;9417;16.484;102.872;2023-03-23T05:22:12;36.20;45.50
18575;DHT22;9417;16.484;102.872;2023-03-23T05:24:25;36.10;45.00
18575;DHT22;9417;16.484;102.872;2023-03-23T05:26:34;36.10;45.10
18575;DHT22;9417;16.484;102.872;2023-03-23T05:28:46;36.10;45.20
18575;DHT22;9417;16.484;102.872;2023-03-23T05:31:00;36.10;45.10
18575;DHT22;9417;16.484;102.872;2023-03-23T05:33:08;36.20;45.00
18575;DHT22;9417;16.484;102.872;2023-03-23T05:35:23;36.20;45.20
18575;DHT22;9417;16.484;102.872;2023-03-23T05:37:30;36.10;45.10
18575;DHT22;9417;16.484;102.872;2023-03-23T05:39:45;36.00;45.20
18575;DHT22;9417;16.484;102.872;2023-03-23T05:41:50;36.00;45.50
18575;DHT22;9417;16.484;102.872;2023-03-23T05:43:56;36.00;45.30
18575;DHT22;9417;16.484;102.872;2023-03-23T05:46:20;36.10;45.40
18575;DHT22;9417;16.484;102.872;2023-03-23T05:48:27;36.10;45.20
18575;DHT22;9417;16.484;102.872;2023-03-23T05:50:33;36.20;45.50
18575;DHT22;9417;16.484;102.872;2023-03-23T05:52:40;36.20;45.40
18575;DHT22;9417;16.484;102.872;2023-03-23T05:54:49;36.20;45.30
18575;DHT22;9417;16.484;102.872;2023-03-23T05:56:56;36.30;45.00
18575;DHT22;9417;16.484;102.872;2023-03-23T05:59:30;36.30;44.60
18575;DHT22;9417;16.484;102.872;2023-03-23T06:01:38;36.40;43.80
18575;DHT22;9417;16.484;102.872;2023-03-23T06:03:43;36.40;43.40
18575;DHT22;9417;16.484;102.872;2023-03-23T06:05:55;36.40;43.60
18575;DHT22;9417;16.484;102.872;2023-03-23T06:08:07;36.60;44.30
18575;DHT22;9417;16.484;102.872;2023-03-23T06:10:14;36.60;44.20
18575;DHT22;9417;16.484;102.872;2023-03-23T06:12:27;36.70;44.10
18575;DHT22;9417;16.484;102.872;2023-03-23T06:14:55;36.70;44.00
18575;DHT22;9417;16.484;102.872;2023-03-23T06:17:16;36.60;43.80
18575;DHT22;9417;16.484;102.872;2023-03-23T06:19:24;36.60;43.90
18575;DHT22;9417;16.484;102.872;2023-03-23T06:21:38;36.50;43.70
18575;DHT22;9417;16.484;102.872;2023-03-23T06:24:02;36.50;43.80
18575;DHT22;9417;16.484;102.872;2023-03-23T06:26:10;36.40;44.00
18575;DHT22;9417;16.484;102.872;2023-03-23T06:28:18;36.20;43.10
18575;DHT22;9417;16.484;102.872;2023-03-23T06:30:25;36.10;44.10
18575;DHT22;9417;16.484;102.872;2023-03-23T06:32:34;36.10;44.90
18575;DHT22;9417;16.484;102.872;2023-03-23T06:34:43;36.00;45.10
18575;DHT22;9417;16.484;102.872;2023-03-23T06:37:10;35.80;45.20
18575;DHT22;9417;16.484;102.872;2023-03-23T06:39:29;35.70;45.40
18575;DHT22;9417;16.484;102.872;2023-03-23T06:42:08;35.60;42.60
18575;DHT22;9417;16.484;102.872;2023-03-23T06:44:18;35.50;45.30
18575;DHT22;9417;16.484;102.872;2023-03-23T06:46:23;35.40;46.30
18575;DHT22;9417;16.484;102.872;2023-03-23T06:48:29;35.30;47.30
18575;DHT22;9417;16.484;102.872;2023-03-23T06:50:36;35.20;47.40
18575;DHT22;9417;16.484;102.872;2023-03-23T06:52:46;35.10;47.40
18575;DHT22;9417;16.484;102.872;2023-03-23T06:54:53;35.00;49.60
18575;DHT22;9417;16.484;102.872;2023-03-23T06:56:58;34.80;50.00
18575;DHT22;9417;16.484;102.872;2023-03-23T06:59:06;34.80;50.10
18575;DHT22;9417;16.484;102.872;2023-03-23T07:01:14;34.70;50.60
18575;DHT22;9417;16.484;102.872;2023-03-23T07:03:29;34.60;50.60
18575;DHT22;9417;16.484;102.872;2023-03-23T07:05:36;34.50;49.90
18575;DHT22;9417;16.484;102.872;2023-03-23T07:07:41;34.40;51.40
18575;DHT22;9417;16.484;102.872;2023-03-23T07:09:58;34.00;52.50
18575;DHT22;9417;16.484;102.872;2023-03-23T07:12:06;33.60;53.70
18575;DHT22;9417;16.484;102.872;2023-03-23T07:14:18;33.30;56.70
18575;DHT22;9417;16.484;102.872;2023-03-23T07:16:25;32.60;54.90
18575;DHT22;9417;16.484;102.872;2023-03-23T07:18:30;32.00;55.70
18575;DHT22;9417;16.484;102.872;2023-03-23T07:20:36;31.60;55.60
18575;DHT22;9417;16.484;102.872;2023-03-23T07:22:42;31.20;58.20
18575;DHT22;9417;16.484;102.872;2023-03-23T07:25:08;30.80;60.40
18575;DHT22;9417;16.484;102.872;2023-03-23T07:27:29;30.40;62.00
18575;DHT22;9417;16.484;102.872;2023-03-23T07:29:39;30.10;64.20
18575;DHT22;9417;16.484;102.872;2023-03-23T07:31:55;29.80;65.10
18575;DHT22;9417;16.484;102.872;2023-03-23T07:34:00;29.60;66.60
18575;DHT22;9417;16.484;102.872;2023-03-23T07:36:19;29.60;67.40
18575;DHT22;9417;16.484;102.872;2023-03-23T07:38:24;29.40;69.50
18575;DHT22;9417;16.484;102.872;2023-03-23T07:40:30;29.20;72.10
18575;DHT22;9417;16.484;102.872;2023-03-23T07:42:55;28.80;73.80
18575;DHT22;9417;16.484;102.872;2023-03-23T07:45:16;28.40;75.40
18575;DHT22;9417;16.484;102.872;2023-03-23T07:47:21;28.20;77.50
18575;DHT22;9417;16.484;102.872;2023-03-23T07:49:27;28.10;76.60
18575;DHT22;9417;16.484;102.872;2023-03-23T07:51:46;28.10;75.70
18575;DHT22;9417;16.484;102.872;2023-03-23T07:53:53;28.20;74.40
18575;DHT22;9417;16.484;102.872;2023-03-23T07:56:18;28.40;74.30
18575;DHT22;9417;16.484;102.872;2023-03-23T07:58:24;28.40;73.90
18575;DHT22;9417;16.484;102.872;2023-03-23T08:00:34;28.50;73.10
18575;DHT22;9417;16.484;102.872;2023-03-23T08:02:42;28.60;72.30
18575;DHT22;9417;16.484;102.872;2023-03-23T08:05:07;28.70;71.60
18575;DHT22;9417;16.484;102.872;2023-03-23T08:07:34;28.70;70.80
18575;DHT22;9417;16.484;102.872;2023-03-23T08:09:59;28.80;71.20
18575;DHT22;9417;16.484;102.872;2023-03-23T08:12:18;28.40;72.50
18575;DHT22;9417;16.484;102.872;2023-03-23T08:14:41;28.00;73.20
18575;DHT22;9417;16.484;102.872;2023-03-23T08:17:27;27.40;76.30
18575;DHT22;9417;16.484;102.872;2023-03-23T08:19:52;26.90;78.90
18575;DHT22;9417;16.484;102.872;2023-03-23T08:22:15;26.60;77.90
18575;DHT22;9417;16.484;102.872;2023-03-23T08:24:44;26.30;77.10
18575;DHT22;9417;16.484;102.872;2023-03-23T08:27:02;25.90;77.00
18575;DHT22;9417;16.484;102.872;2023-03-23T08:29:22;25.20;81.90
18575;DHT22;9417;16.484;102.872;2023-03-23T08:31:28;24.80;86.10
18575;DHT22;9417;16.484;102.872;2023-03-23T08:33:55;24.60;87.00
18575;DHT22;9417;16.484;102.872;2023-03-23T08:36:01;24.80;83.20
18575;DHT22;9417;16.484;102.872;2023-03-23T08:49:23;24.90;80.50
18575;DHT22;9417;16.484;102.872;2023-03-23T08:51:51;26.70;61.10
18575;DHT22;9417;16.484;102.872;2023-03-23T08:54:15;27.20;60.90
18575;DHT22;9417;16.484;102.872;2023-03-23T08:56:34;27.50;59.40
18575;DHT22;9417;16.484;102.872;2023-03-23T08:58:59;27.80;59.60
18575;DHT22;9417;16.484;102.872;2023-03-23T09:01:21;28.00;58.40
18575;DHT22;9417;16.484;102.872;2023-03-23T09:03:45;28.10;58.50
18575;DHT22;9417;16.484;102.872;2023-03-23T09:06:11;28.30;59.10
18575;DHT22;9417;16.484;102.872;2023-03-23T09:08:21;28.30;60.00
18575;DHT22;9417;16.484;102.872;2023-03-23T09:10:26;28.30;60.80
18575;DHT22;9417;16.484;102.872;2023-03-23T09:12:33;28.30;62.90
18575;DHT22;9417;16.484;102.872;2023-03-23T09:14:39;28.20;64.80
18575;DHT22;9417;16.484;102.872;2023-03-23T09:16:44;28.20;66.00
18575;DHT22;9417;16.484;102.872;2023-03-23T09:18:49;28.20;66.80
18575;DHT22;9417;16.484;102.872;2023-03-23T09:20:55;28.20;68.00
18575;DHT22;9417;16.484;102.872;2023-03-23T09:23:02;28.10;68.50
18575;DHT22;9417;16.484;102.872;2023-03-23T09:25:09;28.10;69.60
18575;DHT22;9417;16.484;102.872;2023-03-23T09:27:15;28.10;70.70
18575;DHT22;9417;16.484;102.872;2023-03-23T09:29:20;28.00;70.60
18575;DHT22;9417;16.484;102.872;2023-03-23T09:31:26;28.00;71.50
18575;DHT22;9417;16.484;102.872;2023-03-23T09:33:31;27.90;71.40
18575;DHT22;9417;16.484;102.872;2023-03-23T09:35:38;27.90;71.30
18575;DHT22;9417;16.484;102.872;2023-03-23T09:37:45;27.90;71.50
18575;DHT22;9417;16.484;102.872;2023-03-23T09:39:53;27.90;73.60
18575;DHT22;9417;16.484;102.872;2023-03-23T09:42:11;27.90;71.40
18575;DHT22;9417;16.484;102.872;2023-03-23T09:44:24;27.90;70.70
18575;DHT22;9417;16.484;102.872;2023-03-23T09:46:46;27.90;71.00
18575;DHT22;9417;16.484;102.872;2023-03-23T09:48:54;28.00;71.30
18575;DHT22;9417;16.484;102.872;2023-03-23T09:51:03;28.00;71.20
18575;DHT22;9417;16.484;102.872;2023-03-23T09:53:12;28.00;71.80
18575;DHT22;9417;16.484;102.872;2023-03-23T09:55:21;28.00;72.10
18575;DHT22;9417;16.484;102.872;2023-03-23T09:57:30;27.90;72.80
18575;DHT22;9417;16.484;102.872;2023-03-23T09:59:41;27.90;73.60
18575;DHT22;9417;16.484;102.872;2023-03-23T10:01:49;27.90;74.30
18575;DHT22;9417;16.484;102.872;2023-03-23T10:04:01;27.80;74.00
18575;DHT22;9417;16.484;102.872;2023-03-23T10:06:10;27.80;76.00
18575;DHT22;9417;16.484;102.872;2023-03-23T10:08:18;27.60;76.30
18575;DHT22;9417;16.484;102.872;2023-03-23T10:10:32;27.40;78.90
18575;DHT22;9417;16.484;102.872;2023-03-23T10:12:42;27.20;84.50
18575;DHT22;9417;16.484;102.872;2023-03-23T10:15:03;27.00;82.60
18575;DHT22;9417;16.484;102.872;2023-03-23T10:17:14;26.80;80.90
18575;DHT22;9417;16.484;102.872;2023-03-23T10:19:25;26.70;80.20
18575;DHT22;9417;16.484;102.872;2023-03-23T10:21:35;26.50;79.70
18575;DHT22;9417;16.484;102.872;2023-03-23T10:23:58;26.30;80.20
18575;DHT22;9417;16.484;102.872;2023-03-23T10:26:09;26.10;82.90
18575;DHT22;9417;16.484;102.872;2023-03-23T10:28:19;25.90;83.30
18575;DHT22;9417;16.484;102.872;2023-03-23T10:30:29;25.50;85.70
18575;DHT22;9417;16.484;102.872;2023-03-23T10:32:41;25.30;84.30
18575;DHT22;9417;16.484;102.872;2023-03-23T10:34:52;25.30;84.80
18575;DHT22;9417;16.484;102.872;2023-03-23T10:37:05;25.10;85.20
18575;DHT22;9417;16.484;102.872;2023-03-23T10:39:13;24.90;86.80
18575;DHT22;9417;16.484;102.872;2023-03-23T10:41:21;24.90;87.90
18575;DHT22;9417;16.484;102.872;2023-03-23T10:43:26;24.90;88.10
18575;DHT22;9417;16.484;102.872;2023-03-23T10:45:32;24.80;89.00
18575;DHT22;9417;16.484;102.872;2023-03-23T10:47:39;24.80;89.20
18575;DHT22;9417;16.484;102.872;2023-03-23T10:49:50;24.80;89.40
18575;DHT22;9417;16.484;102.872;2023-03-23T10:52:10;24.90;90.00
18575;DHT22;9417;16.484;102.872;2023-03-23T10:54:26;24.90;91.80
18575;DHT22;9417;16.484;102.872;2023-03-23T10:56:39;24.90;91.60
18575;DHT22;9417;16.484;102.872;2023-03-23T10:58:44;25.10;91.20
18575;DHT22;9417;16.484;102.872;2023-03-23T11:00:50;25.20;90.10
18575;DHT22;9417;16.484;102.872;2023-03-23T11:03:00;25.30;90.30
18575;DHT22;9417;16.484;102.872;2023-03-23T11:05:16;25.30;90.30
18575;DHT22;9417;16.484;102.872;2023-03-23T11:07:29;25.40;90.00
18575;DHT22;9417;16.484;102.872;2023-03-23T11:09:36;25.40;90.10
18575;DHT22;9417;16.484;102.872;2023-03-23T11:11:48;25.50;90.10
18575;DHT22;9417;16.484;102.872;2023-03-23T11:13:58;25.50;90.00
18575;DHT22;9417;16.484;102.872;2023-03-23T11:16:04;25.50;90.00
18575;DHT22;9417;16.484;102.872;2023-03-23T11:18:11;25.60;90.30
18575;DHT22;9417;16.484;102.872;2023-03-23T11:20:20;25.60;90.00
18575;DHT22;9417;16.484;102.872;2023-03-23T11:22:28;25.60;89.90
18575;DHT22;9417;16.484;102.872;2023-03-23T11:24:35;25.70;89.90
18575;DHT22;9417;16.484;102.872;2023-03-23T11:26:45;25.70;90.00
18575;DHT22;9417;16.484;102.872;2023-03-23T11:28:55;25.70;90.00
18575;DHT22;9417;16.484;102.872;2023-03-23T11:31:04;25.70;90.10
18575;DHT22;9417;16.484;102.872;2023-03-23T11:33:11;25.80;89.90
18575;DHT22;9417;16.484;102.872;2023-03-23T11:35:20;25.80;90.00
18575;DHT22;9417;16.484;102.872;2023-03-23T11:37:31;25.80;90.40
18575;DHT22;9417;16.484;102.872;2023-03-23T11:39:47;25.80;90.40
18575;DHT22;9417;16.484;102.872;2023-03-23T11:41:56;25.80;90.60
18575;DHT22;9417;16.484;102.872;2023-03-23T11:44:10;25.80;90.40
18575;DHT22;9417;16.484;102.872;2023-03-23T11:46:26;25.80;90.80
18575;DHT22;9417;16.484;102.872;2023-03-23T11:48:40;25.80;90.80
18575;DHT22;9417;16.484;102.872;2023-03-23T11:50:52;25.80;90.80
18575;DHT22;9417;16.484;102.872;2023-03-23T11:53:02;25.80;91.10
18575;DHT22;9417;16.484;102.872;2023-03-23T11:55:12;25.80;90.90
18575;DHT22;9417;16.484;102.872;2023-03-23T11:57:19;25.80;91.00
18575;DHT22;9417;16.484;102.872;2023-03-23T11:59:29;25.80;90.90
18575;DHT22;9417;16.484;102.872;2023-03-23T12:01:47;25.90;91.10
18575;DHT22;9417;16.484;102.872;2023-03-23T12:04:04;25.90;91.40
18575;DHT22;9417;16.484;102.872;2023-03-23T12:06:23;25.90;91.30
18575;DHT22;9417;16.484;102.872;2023-03-23T12:08:44;25.90;91.80
18575;DHT22;9417;16.484;102.872;2023-03-23T12:11:03;25.90;91.60
18575;DHT22;9417;16.484;102.872;2023-03-23T12:13:28;25.90;91.40
18575;DHT22;9417;16.484;102.872;2023-03-23T12:15:42;25.90;91.70
18575;DHT22;9417;16.484;102.872;2023-03-23T12:17:54;25.90;91.40
18575;DHT22;9417;16.484;102.872;2023-03-23T12:20:13;25.90;91.30
18575;DHT22;9417;16.484;102.872;2023-03-23T12:22:32;25.90;91.20
18575;DHT22;9417;16.484;102.872;2023-03-23T12:24:52;25.90;91.40
18575;DHT22;9417;16.484;102.872;2023-03-23T12:27:03;25.90;91.60
18575;DHT22;9417;16.484;102.872;2023-03-23T12:29:28;25.90;91.60
18575;DHT22;9417;16.484;102.872;2023-03-23T12:31:43;25.90;91.80
18575;DHT22;9417;16.484;102.872;2023-03-23T12:33:55;25.90;91.80
18575;DHT22;9417;16.484;102.872;2023-03-23T12:36:10;25.90;92.00
18575;DHT22;9417;16.484;102.872;2023-03-23T12:38:38;25.90;92.00
18575;DHT22;9417;16.484;102.872;2023-03-23T12:40:55;25.80;92.00
18575;DHT22;9417;16.484;102.872;2023-03-23T12:43:07;25.80;92.10
18575;DHT22;9417;16.484;102.872;2023-03-23T12:45:25;25.90;91.90
18575;DHT22;9417;16.484;102.872;2023-03-23T12:47:38;25.90;92.00
18575;DHT22;9417;16.484;102.872;2023-03-23T12:49:50;25.90;91.90
18575;DHT22;9417;16.484;102.872;2023-03-23T12:52:01;26.00;91.70
18575;DHT22;9417;16.484;102.872;2023-03-23T12:54:15;26.00;91.70
18575;DHT22;9417;16.484;102.872;2023-03-23T12:56:26;25.90;91.50
18575;DHT22;9417;16.484;102.872;2023-03-23T12:58:34;26.00;91.60
18575;DHT22;9417;16.484;102.872;2023-03-23T13:00:57;25.90;91.50
18575;DHT22;9417;16.484;102.872;2023-03-23T13:03:09;26.00;91.80
18575;DHT22;9417;16.484;102.872;2023-03-23T13:05:35;26.00;91.60
18575;DHT22;9417;16.484;102.872;2023-03-23T13:07:44;26.00;91.80
18575;DHT22;9417;16.484;102.872;2023-03-23T13:09:55;26.00;91.60
18575;DHT22;9417;16.484;102.872;2023-03-23T13:12:05;26.00;91.60
18575;DHT22;9417;16.484;102.872;2023-03-23T13:14:21;26.00;91.60
18575;DHT22;9417;16.484;102.872;2023-03-23T13:16:37;26.00;91.70
18575;DHT22;9417;16.484;102.872;2023-03-23T13:18:49;26.00;91.70
18575;DHT22;9417;16.484;102.872;2023-03-23T13:21:05;26.10;91.70
18575;DHT22;9417;16.484;102.872;2023-03-23T13:23:14;26.10;91.70
18575;DHT22;9417;16.484;102.872;2023-03-23T13:25:41;26.20;91.80
18575;DHT22;9417;16.484;102.872;2023-03-23T13:27:57;26.20;92.20
18575;DHT22;9417;16.484;102.872;2023-03-23T13:30:05;26.20;92.10
18575;DHT22;9417;16.484;102.872;2023-03-23T13:32:35;26.20;91.90
18575;DHT22;9417;16.484;102.872;2023-03-23T13:34:41;26.20;92.10
18575;DHT22;9417;16.484;102.872;2023-03-23T13:36:55;26.30;91.90
18575;DHT22;9417;16.484;102.872;2023-03-23T13:39:02;26.20;92.00
18575;DHT22;9417;16.484;102.872;2023-03-23T13:41:12;26.20;92.00
18575;DHT22;9417;16.484;102.872;2023-03-23T13:43:28;26.20;91.90
18575;DHT22;9417;16.484;102.872;2023-03-23T13:45:44;26.20;92.20
18575;DHT22;9417;16.484;102.872;2023-03-23T13:48:03;26.30;92.10
18575;DHT22;9417;16.484;102.872;2023-03-23T13:50:24;26.20;92.30
18575;DHT22;9417;16.484;102.872;2023-03-23T13:52:45;26.20;92.10
18575;DHT22;9417;16.484;102.872;2023-03-23T13:54:52;26.20;92.00
18575;DHT22;9417;16.484;102.872;2023-03-23T13:57:33;26.20;91.80
18575;DHT22;9417;16.484;102.872;2023-03-23T13:59:48;26.20;91.80